createdAt,value
2023-04-12T00:00:11.945Z,100194.31
2023-04-12T00:02:42.242Z,100184.03
2023-04-12T00:05:12.122Z,100178.06
2023-04-12T00:07:42.753Z,100175.59
2023-04-12T00:10:11.689Z,100171.28
2023-04-12T00:12:40.848Z,100170.53
2023-04-12T00:15:10.758Z,100167.19
2023-04-12T00:17:39.397Z,100159.50
2023-04-12T00:20:12.539Z,100152.75
2023-04-12T00:22:42.556Z,100145.97
2023-04-12T00:25:11.587Z,100145.31
2023-04-12T00:27:40.512Z,100140.28
2023-04-12T00:30:10.023Z,100142.09
2023-04-12T00:32:38.415Z,100145.69
2023-04-12T00:35:08.122Z,100142.31
2023-04-12T00:37:38.390Z,100136.31
2023-04-12T00:40:10.449Z,100137.41
2023-04-12T00:42:39.254Z,100134.91
2023-04-12T00:45:09.269Z,100127.16
2023-04-12T00:47:39.175Z,100112.44
2023-04-12T00:50:09.440Z,100127.34
2023-04-12T00:52:39.119Z,100126.53
2023-04-12T00:55:10.520Z,100126.63
2023-04-12T00:57:41.084Z,100128.41
2023-04-12T01:00:13.447Z,100127.59
2023-04-12T01:02:47.720Z,100131.22
2023-04-12T01:05:22.513Z,100127.84
2023-04-12T01:08:07.082Z,100115.00
2023-04-12T01:10:47.440Z,100109.09
2023-04-12T01:13:29.925Z,100113.66
2023-04-12T01:16:08.960Z,100113.84
2023-04-12T01:18:42.864Z,100105.31
2023-04-12T01:21:18.558Z,100108.06
2023-04-12T01:24:02.812Z,100098.69
2023-04-12T01:26:42.328Z,100089.19
2023-04-12T01:29:15.512Z,100091.94
2023-04-12T01:31:55.379Z,100076.34
2023-04-12T01:34:26.335Z,100084.28
2023-04-12T01:36:56.391Z,100075.69
2023-04-12T01:39:25.116Z,100075.75
2023-04-12T01:41:53.781Z,100070.59
2023-04-12T01:44:23.567Z,100065.47
2023-04-12T01:46:53.793Z,100048.13
2023-04-12T01:49:27.089Z,100051.72
2023-04-12T01:52:04.828Z,100047.41
2023-04-12T01:54:40.012Z,100046.66
2023-04-12T01:57:09.519Z,100039.75
2023-04-12T01:59:42.867Z,100030.28
2023-04-12T02:02:12.606Z,100020.81
2023-04-12T02:04:42.680Z,100022.63
2023-04-12T02:07:11.427Z,100005.19
2023-04-12T02:09:41.207Z,100004.44
2023-04-12T02:12:09.966Z,100001.03
2023-04-12T02:14:40.027Z,100001.94
2023-04-12T02:17:09.619Z,100001.06
2023-04-12T02:19:39.057Z,99991.50
2023-04-12T02:22:08.319Z,99989.69
2023-04-12T02:24:36.917Z,99991.41
2023-04-12T02:27:05.992Z,99987.91
2023-04-12T02:29:35.042Z,99990.50
2023-04-12T02:32:05.467Z,99980.00
2023-04-12T02:34:36.441Z,99972.22
2023-04-12T02:37:17.899Z,99967.88
2023-04-12T02:39:46.552Z,99960.09
2023-04-12T02:42:15.432Z,99953.97
2023-04-12T02:44:47.852Z,99951.38
2023-04-12T02:47:18.351Z,99957.50
2023-04-12T02:49:49.829Z,99949.72
2023-04-12T02:52:20.445Z,99940.97
2023-04-12T02:55:01.833Z,99938.34
2023-04-12T02:57:30.979Z,99932.22
2023-04-12T02:59:59.723Z,99926.13
2023-04-12T03:02:51.482Z,99922.69
2023-04-12T03:05:25.844Z,99912.28
2023-04-12T03:07:54.860Z,99907.94
2023-04-12T03:10:30.025Z,99899.28
2023-04-12T03:13:04.970Z,99899.28
2023-04-12T03:15:56.018Z,99909.72
2023-04-12T03:18:29.100Z,99907.09
2023-04-12T03:20:58.265Z,99900.19
2023-04-12T03:23:27.043Z,99897.56
2023-04-12T03:26:08.790Z,99889.72
2023-04-12T03:28:37.420Z,99888.75
2023-04-12T03:31:08.659Z,99872.25
2023-04-12T03:33:43.127Z,99871.38
2023-04-12T03:36:22.360Z,99860.94
2023-04-12T03:38:56.775Z,99860.94
2023-04-12T03:41:26.591Z,99855.69
2023-04-12T03:43:55.817Z,99847.88
2023-04-12T03:46:24.850Z,99838.34
2023-04-12T03:48:59.815Z,99831.38
2023-04-12T03:51:30.469Z,99813.09
2023-04-12T03:54:04.374Z,99814.00
2023-04-12T03:56:43.233Z,99807.03
2023-04-12T03:59:21.104Z,99808.88
2023-04-12T04:01:52.134Z,99796.69
2023-04-12T04:04:23.386Z,99793.28
2023-04-12T04:06:56.629Z,99785.47
2023-04-12T04:09:26.630Z,99779.41
2023-04-12T04:11:55.910Z,99776.78
2023-04-12T04:14:25.066Z,99763.75
2023-04-12T04:16:54.007Z,99738.47
